Data for 01/23/2009

Time Sea-Level Adjusted Pressure Absolute Pressure Temperature Relative Humidity Dew Point   
(mb) (inHg) (mb) (inHg) (C) (F) (%) (C) (F)
00:05 1021 30.15 850 25.1 -7.5 18.5 82 -10 13.9
00:10 1021 30.15 850 25.1 -7.6 18.4 82 -10.2 13.7
00:15 1021 30.15 850 25.1 -7.7 18.2 82 -10.2 13.6
00:20 1021 30.15 850 25.1 -7.7 18.2 82 -10.2 13.7
00:25 1021 30.15 850 25.1 -7.7 18.1 82 -10.2 13.7
00:30 1021 30.15 850 25.1 -7.8 18 83 -10.3 13.5
00:35 1021 30.15 850 25.1 -7.8 17.9 83 -10.3 13.4
00:40 1021 30.15 850 25.1 -7.8 18 81 -10.4 13.2
00:45 1021 30.15 850 25.1 -7.9 17.8 82 -10.5 13.1
00:50 1021 30.15 851 25.13 -7.9 17.7 81 -10.6 12.9
00:55 1021 30.15 851 25.13 -8 17.6 81 -10.7 12.7
01:00 1021 30.15 850 25.1 -8.1 17.4 81 -10.8 12.5
01:05 1021 30.15 851 25.13 -8.2 17.3 81 -10.9 12.4
01:10 1021 30.15 851 25.13 -8.2 17.3 81 -10.9 12.4
01:15 1021 30.15 851 25.13 -8.2 17.3 81 -10.9 12.4
01:20 1021 30.15 851 25.13 -8.2 17.2 81 -10.9 12.3
01:25 1021 30.15 851 25.13 -8.3 17.1 81 -11 12.2
01:30 1021 30.15 851 25.13 -8.4 17 81 -11.1 12
01:35 1021 30.15 851 25.13 -8.4 16.9 80 -11.2 11.9
01:40 1021 30.15 851 25.13 -8.4 16.9 80 -11.3 11.7
01:45 1022 30.18 851 25.13 -8.5 16.7 80 -11.3 11.7
01:50 1022 30.18 851 25.13 -8.5 16.7 81 -11.2 11.8
01:55 1022 30.18 851 25.13 -8.6 16.6 81 -11.3 11.7
02:00 1022 30.18 851 25.13 -8.6 16.6 82 -11.2 11.9
02:05 1022 30.18 851 25.13 -8.6 16.6 81 -11.2 11.8
02:10 1022 30.18 851 25.13 -8.6 16.6 81 -11.3 11.7
02:15 1022 30.18 851 25.13 -8.6 16.4 82 -11.2 11.8
02:20 1022 30.18 851 25.13 -8.6 16.5 80 -11.5 11.4
02:25 1022 30.18 851 25.13 -8.7 16.3 79 -11.7 10.9
02:30 1022 30.18 852 25.16 -8.9 16 79 -11.9 10.5
02:35 1022 30.18 852 25.16 -9.1 15.7 81 -11.8 10.8
02:40 1023 30.21 852 25.16 -9.2 15.4 88 -10.8 12.5
02:45 1023 30.21 852 25.16 -9.3 15.3 86 -11.2 11.8
02:50 1023 30.21 852 25.16 -9.5 14.8 86 -11.4 11.4
02:55 1023 30.21 852 25.16 -9.9 14.2 87 -11.7 10.9
03:00 1023 30.21 852 25.16 -10.1 13.9 86 -12 10.4
03:05 1023 30.21 852 25.16 -10.2 13.7 87 -11.9 10.5
03:10 1023 30.21 852 25.16 -10.1 13.7 87 -11.9 10.6
03:15 1023 30.21 852 25.16 -10.2 13.7 86 -12.1 10.2
03:20 1023 30.21 852 25.16 -10.5 13.2 86 -12.3 9.8
03:25 1023 30.21 852 25.16 -10.6 12.9 86 -12.5 9.5
03:30 1023 30.21 852 25.16 -10.7 12.8 85 -12.7 9.1
03:35 1023 30.21 853 25.19 -10.8 12.6 85 -12.8 9
03:40 1023 30.21 853 25.19 -10.9 12.4 85 -12.9 8.7
03:45 1024 30.24 853 25.19 -11 12.2 85 -13.1 8.4
03:50 1023 30.21 853 25.19 -11.2 11.9 85 -13.2 8.2
03:55 1024 30.24 853 25.19 -11.2 11.8 86 -13.2 8.3
04:00 1024 30.24 853 25.19 -11.2 11.8 85 -13.3 8
04:05 1024 30.24 853 25.19 -11.3 11.7 85 -13.4 7.9
04:10 1024 30.24 853 25.19 -11.4 11.4 85 -13.4 7.8
04:15 1024 30.24 853 25.19 -11.5 11.3 85 -13.5 7.7
04:20 1024 30.24 853 25.19 -11.6 11.1 85 -13.6 7.5
04:25 1024 30.24 853 25.19 -11.7 11 85 -13.7 7.3
04:30 1024 30.24 853 25.19 -11.7 10.9 86 -13.7 7.4
04:35 1024 30.24 853 25.19 -11.7 10.9 85 -13.7 7.3
04:40 1024 30.24 853 25.19 -11.7 11 85 -13.7 7.3
04:45 1024 30.24 853 25.19 -11.7 10.9 86 -13.7 7.4
04:50 1024 30.24 853 25.19 -11.8 10.7 85 -13.9 7
04:55 1024 30.24 853 25.19 -12 10.4 85 -14.1 6.7
05:00 1024 30.24 853 25.19 -12.1 10.2 85 -14.1 6.6
05:05 1024 30.24 853 25.19 -12.2 10.1 85 -14.2 6.5
05:10 1024 30.24 853 25.19 -12.2 10 85 -14.3 6.3
05:15 1024 30.24 853 25.19 -12.3 9.8 85 -14.3 6.2
05:20 1024 30.24 853 25.19 -12.3 9.9 85 -14.3 6.3
05:25 1024 30.24 853 25.19 -12.3 9.9 84 -14.4 6.1
05:30 1024 30.24 854 25.22 -12.4 9.7 85 -14.4 6
05:35 1024 30.24 854 25.22 -12.4 9.7 84 -14.6 5.8
05:40 1025 30.27 854 25.22 -12.3 9.8 83 -14.6 5.7
05:45 1025 30.27 854 25.22 -12.5 9.6 83 -14.8 5.4
05:50 1025 30.27 854 25.22 -12.6 9.3 82 -15 5
05:55 1025 30.27 854 25.22 -12.6 9.2 83 -14.9 5.1
06:00 1025 30.27 854 25.22 -12.6 9.3 83 -15 5
06:05 1025 30.27 854 25.22 -12.7 9.2 83 -15.1 4.9
06:10 1025 30.27 854 25.22 -12.8 9.1 82 -15.3 4.5
06:15 1025 30.27 854 25.22 -12.9 8.7 81 -15.5 4.1
06:20 1025 30.27 854 25.22 -13 8.6 82 -15.4 4.2
06:25 1025 30.27 855 25.25 -13 8.6 82 -15.5 4.1
06:30 1025 30.27 855 25.25 -13 8.7 81 -15.5 4.1
06:35 1025 30.27 855 25.25 -13 8.7 82 -15.4 4.3
06:40 1025 30.27 855 25.25 -13.1 8.3 82 -15.6 3.9
06:45 1025 30.27 855 25.25 -13.3 8 82 -15.8 3.6
06:50 1026 30.3 855 25.25 -13.4 7.9 83 -15.8 3.6
06:55 1026 30.3 855 25.25 -13.5 7.8 82 -15.9 3.4
07:00 1026 30.3 855 25.25 -13.5 7.7 83 -15.8 3.5
07:05 1026 30.3 855 25.25 -13.6 7.6 82 -16 3.3
07:10 1026 30.3 855 25.25 -13.6 7.5 83 -15.9 3.5
07:15 1026 30.3 855 25.25 -13.5 7.6 82 -15.9 3.3
07:20 1026 30.3 855 25.25 -13.6 7.5 83 -16 3.3
07:25 1026 30.3 855 25.25 -13.6 7.6 83 -15.9 3.3
07:30 1026 30.3 855 25.25 -13.6 7.6 82 -16.1 3.1
07:35 1026 30.3 855 25.25 -13.6 7.6 82 -16 3.1
07:40 1026 30.3 855 25.25 -13.6 7.5 83 -15.9 3.3
07:45 1026 30.3 855 25.25 -13.6 7.6 82 -16 3.3
07:50 1026 30.3 855 25.25 -13.6 7.6 82 -16.1 3.1
07:55 1026 30.3 855 25.25 -13.6 7.6 81 -16.2 2.9
08:00 1026 30.3 855 25.25 -13.6 7.6 81 -16.2 2.9
08:05 1026 30.3 855 25.25 -13.6 7.6 80 -16.3 2.6
08:10 1026 30.3 856 25.28 -13.7 7.4 80 -16.4 2.5
08:15 1026 30.3 856 25.28 -13.8 7.1 83 -16.2 2.9
08:20 1026 30.3 856 25.28 -13.8 7.1 82 -16.2 2.8
08:25 1026 30.3 856 25.28 -13.7 7.3 80 -16.4 2.5
08:30 1026 30.3 856 25.28 -13.7 7.4 81 -16.3 2.6
08:35 1026 30.3 856 25.28 -13.6 7.5 81 -16.2 2.9
08:40 1026 30.3 856 25.28 -13.6 7.5 81 -16.2 2.8
08:45 1027 30.33 856 25.28 -13.5 7.7 81 -16.1 3
08:50 1027 30.33 856 25.28 -13.3 8.1 80 -16.1 3
08:55 1027 30.33 856 25.28 -13.2 8.2 80 -16 3.2
09:00 1027 30.33 856 25.28 -13.2 8.2 80 -16 3.2
09:05 1027 30.33 856 25.28 -13.2 8.3 78 -16.2 2.9
09:10 1027 30.33 856 25.28 -13.2 8.3 79 -16.1 3
09:15 1027 30.33 856 25.28 -13.1 8.5 78 -16.1 3.1
09:20 1027 30.33 856 25.28 -13.1 8.4 78 -16.1 2.9
09:25 1027 30.33 856 25.28 -13 8.6 78 -16 3.1
09:30 1027 30.33 856 25.28 -12.9 8.8 78 -16.1 3.1
09:35 1027 30.33 856 25.28 -13 8.7 78 -16 3.1
09:40 1027 30.33 856 25.28 -12.9 8.7 77 -16.1 3
09:45 1027 30.33 856 25.28 -12.9 8.8 77 -16 3.1
09:50 1027 30.33 856 25.28 -12.6 9.2 76 -16 3.1
09:55 1027 30.33 856 25.28 -12.5 9.5 76 -15.8 3.5
10:00 1027 30.33 856 25.28 -12.3 9.8 76 -15.8 3.6
10:05 1027 30.33 856 25.28 -12.2 10.1 73 -16 3.1
10:10 1027 30.33 856 25.28 -12.2 10.1 73 -16.1 3.1
10:15 1027 30.33 856 25.28 -12.2 10.1 74 -15.9 3.3
10:20 1027 30.33 856 25.28 -12.1 10.2 72 -16.1 3
10:25 1027 30.33 856 25.28 -12.2 10.1 72 -16.2 2.9
10:30 1027 30.33 856 25.28 -12.3 10 74 -16.1 3.1
10:35 1027 30.33 856 25.28 -12.3 9.9 73 -16.2 2.9
10:40 1027 30.33 856 25.28 -12.1 10.2 75 -15.7 3.8
10:45 1027 30.33 856 25.28 -12.2 10.1 74 -15.9 3.4
10:50 1027 30.33 856 25.28 -12.1 10.2 73 -15.9 3.3
10:55 1027 30.33 856 25.28 -12 10.5 73 -15.8 3.5
11:00 1027 30.33 856 25.28 -12.1 10.3 74 -15.8 3.5
11:05 1027 30.33 856 25.28 -12.3 9.8 74 -16 3.2
11:10 1027 30.33 856 25.28 -12.5 9.6 75 -16.1 3.1
11:15 1027 30.33 856 25.28 -12.3 9.9 73 -16.2 2.8
11:20 1027 30.33 856 25.28 -12.1 10.1 72 -16.3 2.7
11:25 1027 30.33 856 25.28 -11.7 11 68 -16.5 2.3
11:30 1027 30.33 856 25.28 -11.1 12 69 -15.6 3.8
11:35 1027 30.33 856 25.28 -11 12.1 68 -15.9 3.4
11:40 1027 30.33 856 25.28 -11.1 12 68 -15.9 3.4
11:45 1027 30.33 856 25.28 -11.2 11.9 68 -16 3.2
11:50 1027 30.33 856 25.28 -11.4 11.6 68 -16.2 2.9
11:55 1027 30.33 856 25.28 -12 10.4 73 -15.9 3.4
12:00 1027 30.33 856 25.28 -11.7 10.9 74 -15.6 4
12:05 1027 30.33 856 25.28 -11.6 11.2 70 -16 3.2
12:10 1027 30.33 856 25.28 -11.4 11.4 72 -15.6 4
12:15 1027 30.33 856 25.28 -11.4 11.5 70 -15.8 3.5
12:20 1026 30.3 856 25.28 -11.8 10.8 72 -15.9 3.5
12:25 1026 30.3 856 25.28 -11.3 11.6 69 -15.9 3.3
12:30 1026 30.3 856 25.28 -10.8 12.5 68 -15.6 3.9
12:35 1026 30.3 856 25.28 -11.4 11.6 72 -15.5 4.1
12:40 1026 30.3 855 25.25 -11.3 11.6 70 -15.8 3.6
12:45 1026 30.3 855 25.25 -11 12.2 69 -15.7 3.8
12:50 1026 30.3 855 25.25 -10.8 12.5 69 -15.5 4.2
12:55 1026 30.3 855 25.25 -10.5 13.2 66 -15.6 3.9
13:00 1026 30.3 855 25.25 -10.5 13 70 -15 4.9
13:05 1026 30.3 855 25.25 -10.4 13.2 68 -15.3 4.5
13:10 1026 30.3 855 25.25 -10.4 13.4 67 -15.4 4.2
13:15 1026 30.3 855 25.25 -10.4 13.3 70 -14.9 5.3
13:20 1026 30.3 855 25.25 -10.6 12.9 69 -15.3 4.5
13:25 1026 30.3 855 25.25 -11 12.2 71 -15.3 4.5
13:30 1026 30.3 855 25.25 -10.3 13.6 67 -15.2 4.6
13:35 1026 30.3 855 25.25 -9.6 14.7 66 -14.9 5.1
13:40 1026 30.3 855 25.25 -9.9 14.2 66 -15.1 4.7
13:45 1026 30.3 855 25.25 -10.2 13.6 69 -14.9 5.1
13:50 1026 30.3 855 25.25 -10 14.1 63 -15.7 3.7
13:55 1026 30.3 855 25.25 -10.2 13.6 65 -15.5 4
14:00 1025 30.27 855 25.25 -10.5 13 68 -15.3 4.5
14:05 1025 30.27 855 25.25 -10.3 13.5 65 -15.6 4
14:10 1025 30.27 854 25.22 -10.5 13 69 -15.1 4.8
14:15 1025 30.27 854 25.22 -10.2 13.7 67 -15.3 4.5
14:20 1025 30.27 854 25.22 -9.9 14.2 65 -15.4 4.3
14:25 1025 30.27 854 25.22 -10 14.1 64 -15.5 4.1
14:30 1025 30.27 854 25.22 -9.7 14.5 61 -15.8 3.6
14:35 1025 30.27 854 25.22 -9.4 15.1 63 -15.2 4.7
14:40 1025 30.27 854 25.22 -10.3 13.6 65 -15.7 3.8
14:45 1025 30.27 854 25.22 -10 13.9 66 -15.3 4.5
14:50 1025 30.27 854 25.22 -9.9 14.2 63 -15.6 3.9
14:55 1025 30.27 854 25.22 -9.1 15.5 62 -15.2 4.6
15:00 1025 30.27 854 25.22 -8.5 16.7 60 -14.9 5.1
15:05 1025 30.27 854 25.22 -8.5 16.7 60 -15 5
15:10 1025 30.27 854 25.22 -9.3 15.4 64 -14.8 5.4
15:15 1025 30.27 854 25.22 -9.4 15.1 63 -15.3 4.5
15:20 1025 30.27 854 25.22 -9.8 14.4 66 -14.9 5.1
15:25 1025 30.27 854 25.22 -10 14 65 -15.4 4.4
15:30 1025 30.27 854 25.22 -9.9 14.2 63 -15.6 3.9
15:35 1025 30.27 854 25.22 -9.9 14.1 65 -15.3 4.4
15:40 1025 30.27 854 25.22 -10.1 13.8 64 -15.7 3.8
15:45 1025 30.27 854 25.22 -10 14 64 -15.5 4.1
15:50 1024 30.24 854 25.22 -9.7 14.6 63 -15.4 4.2
15:55 1024 30.24 854 25.22 -9.1 15.6 60 -15.5 4.2
16:00 1024 30.24 854 25.22 -9.2 15.5 61 -15.4 4.3
16:05 1024 30.24 854 25.22 -9.3 15.3 61 -15.5 4.1
16:10 1024 30.24 854 25.22 -9.5 14.8 62 -15.5 4.1
16:15 1024 30.24 854 25.22 -9.5 15 62 -15.5 4.2
16:20 1024 30.24 854 25.22 -9.3 15.2 60 -15.6 3.8
16:25 1024 30.24 854 25.22 -9.3 15.3 61 -15.4 4.3
16:30 1024 30.24 854 25.22 -9.7 14.5 63 -15.5 4
16:35 1024 30.24 854 25.22 -10.5 13.1 67 -15.5 4
16:40 1024 30.24 854 25.22 -11.5 11.3 72 -15.6 3.9
16:45 1024 30.24 854 25.22 -11.8 10.8 72 -15.8 3.5
16:50 1024 30.24 854 25.22 -11.3 11.7 69 -15.9 3.3
16:55 1024 30.24 854 25.22 -11.7 11 73 -15.6 4
17:00 1024 30.24 854 25.22 -12.1 10.2 74 -15.9 3.4
17:05 1024 30.24 854 25.22 -12.3 9.9 75 -15.8 3.5
17:10 1024 30.24 854 25.22 -12.5 9.4 77 -15.7 3.7
17:15 1024 30.24 853 25.19 -12.8 9 79 -15.8 3.6
17:20 1024 30.24 853 25.19 -12.8 9 78 -15.9 3.5
17:25 1024 30.24 853 25.19 -12.8 8.9 78 -15.9 3.4
17:30 1024 30.24 853 25.19 -12.9 8.8 78 -15.9 3.4
17:35 1024 30.24 853 25.19 -12.9 8.8 79 -15.8 3.5
17:40 1024 30.24 853 25.19 -12.9 8.8 79 -15.8 3.6
17:45 1024 30.24 853 25.19 -12.9 8.9 80 -15.6 3.9
17:50 1024 30.24 853 25.19 -12.9 8.8 80 -15.6 3.8
17:55 1024 30.24 853 25.19 -13 8.7 81 -15.6 3.9
18:00 1024 30.24 853 25.19 -13.1 8.4 81 -15.8 3.6
18:05 1024 30.24 853 25.19 -13.2 8.2 81 -15.8 3.6
18:10 1024 30.24 853 25.19 -13.3 8.1 81 -15.8 3.5
18:15 1024 30.24 853 25.19 -13.3 8.1 82 -15.8 3.6
18:20 1024 30.24 853 25.19 -13.3 8.1 81 -15.9 3.4
18:25 1024 30.24 853 25.19 -13.4 8 80 -16.1 3.1
18:30 1024 30.24 853 25.19 -13.5 7.7 80 -16.2 2.8
18:35 1024 30.24 853 25.19 -13.6 7.5 81 -16.2 2.8
18:40 1024 30.24 853 25.19 -13.6 7.6 81 -16.2 2.8
18:45 1024 30.24 853 25.19 -13.8 7.2 81 -16.4 2.5
18:50 1024 30.24 853 25.19 -13.9 6.9 80 -16.7 2
18:55 1024 30.24 853 25.19 -14.1 6.6 78 -17.1 1.1
19:00 1024 30.24 853 25.19 -14.3 6.3 78 -17.3 0.9
19:05 1023 30.21 853 25.19 -14.4 6.2 79 -17.3 0.9
19:10 1023 30.21 853 25.19 -14.5 5.9 78 -17.5 0.5
19:15 1023 30.21 853 25.19 -14.5 5.9 77 -17.7 0.1
19:20 1023 30.21 853 25.19 -14.6 5.7 78 -17.7 0.2
19:25 1023 30.21 852 25.16 -14.7 5.6 77 -17.9 -0.2
19:30 1023 30.21 852 25.16 -14.8 5.3 77 -18 -0.3
19:35 1023 30.21 852 25.16 -15 5 77 -18.1 -0.7
19:40 1023 30.21 852 25.16 -15 5 78 -18.1 -0.5
19:45 1023 30.21 852 25.16 -15 5 77 -18.2 -0.8
19:50 1023 30.21 852 25.16 -15 4.9 78 -18.1 -0.6
19:55 1023 30.21 852 25.16 -15.1 4.9 77 -18.2 -0.8
20:00 1023 30.21 852 25.16 -15 4.9 78 -18.1 -0.6
20:05 1023 30.21 852 25.16 -15 5 77 -18.2 -0.8
20:10 1023 30.21 852 25.16 -15.1 4.9 78 -18.1 -0.6
20:15 1023 30.21 852 25.16 -15 5.1 77 -18.1 -0.6
20:20 1023 30.21 852 25.16 -14.8 5.4 77 -18 -0.4
20:25 1023 30.21 852 25.16 -14.7 5.5 78 -17.8 -0.1
20:30 1023 30.21 852 25.16 -14.6 5.8 77 -17.8 -0.1
20:35 1023 30.21 852 25.16 -14.4 6.1 76 -17.7 0.1
20:40 1023 30.21 852 25.16 -14.4 6.2 76 -17.7 0.1
20:45 1023 30.21 852 25.16 -14.4 6.1 77 -17.7 0.2
20:50 1023 30.21 852 25.16 -14.5 6 75 -18 -0.4
20:55 1023 30.21 852 25.16 -14.6 5.6 76 -18 -0.5
21:00 1023 30.21 852 25.16 -14.8 5.4 76 -18.1 -0.5
21:05 1023 30.21 852 25.16 -14.8 5.3 76 -18.2 -0.8
21:10 1023 30.21 852 25.16 -14.9 5.2 76 -18.2 -0.8
21:15 1023 30.21 852 25.16 -15 5.1 77 -18.2 -0.8
21:20 1023 30.21 852 25.16 -14.9 5.2 76 -18.2 -0.8
21:25 1023 30.21 852 25.16 -15 5.1 77 -18.1 -0.7
21:30 1023 30.21 852 25.16 -15.2 4.6 77 -18.4 -1.2
21:35 1023 30.21 852 25.16 -15.3 4.5 76 -18.6 -1.5
21:40 1023 30.21 852 25.16 -15.3 4.4 75 -18.8 -1.8
21:45 1023 30.21 852 25.16 -15.3 4.4 76 -18.6 -1.5
21:50 1023 30.21 852 25.16 -15.2 4.6 76 -18.5 -1.2
21:55 1023 30.21 852 25.16 -15.2 4.6 76 -18.6 -1.5
22:00 1023 30.21 852 25.16 -15.5 4.2 77 -18.7 -1.6
22:05 1022 30.18 852 25.16 -15.5 4 77 -18.7 -1.6
22:10 1023 30.21 852 25.16 -15.5 4.1 77 -18.6 -1.5
22:15 1023 30.21 852 25.16 -15.5 4.2 76 -18.7 -1.7
22:20 1023 30.21 852 25.16 -15.5 4.1 77 -18.7 -1.6
22:25 1023 30.21 852 25.16 -15.4 4.3 77 -18.6 -1.4
22:30 1023 30.21 852 25.16 -15.4 4.3 78 -18.5 -1.2
22:35 1023 30.21 852 25.16 -15.3 4.4 77 -18.4 -1.2
22:40 1023 30.21 852 25.16 -15.2 4.6 77 -18.4 -1.1
22:45 1023 30.21 852 25.16 -15.1 4.7 77 -18.3 -0.9
22:50 1023 30.21 852 25.16 -15 5 77 -18.2 -0.7
22:55 1023 30.21 852 25.16 -15 4.9 77 -18.2 -0.8
23:00 1023 30.21 852 25.16 -15 5.1 77 -18.1 -0.7
23:05 1022 30.18 852 25.16 -15 5.1 79 -17.9 -0.2
23:10 1022 30.18 852 25.16 -15.1 4.8 79 -18 -0.3
23:15 1023 30.21 852 25.16 -15.2 4.6 79 -18 -0.4
23:20 1022 30.18 852 25.16 -15.2 4.6 79 -18.1 -0.6
23:25 1022 30.18 852 25.16 -15.1 4.8 78 -18.1 -0.5
23:30 1022 30.18 852 25.16 -15 4.9 79 -18 -0.3
23:35 1022 30.18 851 25.13 -15 5.1 80 -17.7 0.2
23:40 1022 30.18 851 25.13 -14.9 5.3 79 -17.7 0.1
23:45 1022 30.18 851 25.13 -15 4.9 79 -18 -0.4
23:50 1022 30.18 851 25.13 -15.3 4.6 79 -18.1 -0.5
23:55 1022 30.18 851 25.13 -15.2 4.6 79 -18 -0.5
24:00 1022 30.18 851 25.13 -15.3 4.5 80 -18 -0.4